Time;durP1;ratioP1;P1;durP2;ratioP2;P2;SDS_P1;SDS_P2;PMS_P1;PMS_P2;Temp;Humidity;BMP_temperature;BMP_pressure;BME280_temperature;BME280_humidity;BME280_pressure;Samples;Min_cycle;Max_cycle;Signal;HPM_P1;HPM_P2
2024/04/13 00:01:20;;;;;;;9.15;3.80;;;;;;;;;;5334146;26;20013;-76
2024/04/13 00:03:47;;;;;;;6.25;3.50;;;;;;;;;;5306914;27;20032;-76
2024/04/13 00:06:12;;;;;;;7.28;3.83;;;;;;;;;;5305981;27;20441;-75
2024/04/13 00:08:40;;;;;;;7.38;3.15;;;;;;;;;;5306352;27;20009;-74
2024/04/13 00:11:09;;;;;;;6.97;3.83;;;;;;;;;;5304748;27;20036;-75
2024/04/13 00:13:38;;;;;;;6.07;3.33;;;;;;;;;;5333107;26;20017;-74
2024/04/13 00:16:04;;;;;;;6.55;3.65;;;;;;;;;;5275945;27;20002;-74
2024/04/13 00:18:36;;;;;;;4.90;3.60;;;;;;;;;;5305236;26;20005;-74
2024/04/13 00:21:02;;;;;;;7.97;3.88;;;;;;;;;;5318666;26;20001;-74
2024/04/13 00:23:28;;;;;;;5.13;3.58;;;;;;;;;;5338585;26;20001;-74
2024/04/13 00:25:56;;;;;;;7.07;3.60;;;;;;;;;;5338637;26;20098;-74
2024/04/13 00:28:22;;;;;;;6.93;3.55;;;;;;;;;;5340457;26;20020;-74
2024/04/13 00:30:47;;;;;;;5.32;4.00;;;;;;;;;;5339159;26;20301;-75
2024/04/13 00:33:13;;;;;;;5.20;3.53;;;;;;;;;;5341134;26;20048;-74
2024/04/13 00:35:40;;;;;;;6.18;3.60;;;;;;;;;;5340875;26;19997;-75
2024/04/13 00:38:06;;;;;;;5.72;3.80;;;;;;;;;;5338729;26;20001;-74
2024/04/13 00:40:32;;;;;;;8.82;3.47;;;;;;;;;;5338734;26;20001;-73
2024/04/13 00:43:11;;;;;;;5.78;3.38;;;;;;;;;;5309957;26;20005;-73
2024/04/13 00:45:43;;;;;;;5.45;3.67;;;;;;;;;;5340196;26;20001;-74
2024/04/13 00:48:16;;;;;;;5.38;3.30;;;;;;;;;;5338870;26;20460;-75
2024/04/13 00:50:45;;;;;;;10.88;4.03;;;;;;;;;;5339395;26;20005;-75
2024/04/13 00:53:12;;;;;;;6.43;3.28;;;;;;;;;;5338363;26;20423;-74
2024/04/13 00:55:43;;;;;;;6.93;4.10;;;;;;;;;;5339098;26;20015;-74
2024/04/13 00:58:11;;;;;;;3.72;3.35;;;;;;;;;;5339676;26;20021;-75
2024/04/13 01:00:37;;;;;;;6.63;3.47;;;;;;;;;;5338858;26;20005;-75
2024/04/13 01:03:04;;;;;;;5.80;3.63;;;;;;;;;;5340419;26;20013;-75
2024/04/13 01:05:31;;;;;;;5.38;3.42;;;;;;;;;;5310224;26;20001;-74
2024/04/13 01:07:57;;;;;;;9.43;3.67;;;;;;;;;;5338426;26;19997;-75
2024/04/13 01:10:23;;;;;;;8.07;3.38;;;;;;;;;;5340515;26;20011;-75
2024/04/13 01:12:52;;;;;;;8.63;4.00;;;;;;;;;;5341807;26;20001;-75
2024/04/13 01:15:18;;;;;;;7.72;3.28;;;;;;;;;;5344952;26;20037;-75
2024/04/13 01:17:45;;;;;;;7.95;3.75;;;;;;;;;;5344792;26;20000;-74
2024/04/13 01:20:13;;;;;;;7.82;3.67;;;;;;;;;;5343847;26;20417;-74
2024/04/13 01:22:47;;;;;;;4.38;3.30;;;;;;;;;;5374835;26;20000;-74
2024/04/13 01:25:15;;;;;;;10.38;3.40;;;;;;;;;;5374834;26;20000;-75
2024/04/13 01:27:41;;;;;;;6.90;3.65;;;;;;;;;;5374845;26;20005;-73
2024/04/13 01:30:09;;;;;;;4.20;3.53;;;;;;;;;;5345013;26;20000;-73
2024/04/13 01:32:35;;;;;;;4.68;3.75;;;;;;;;;;5346503;26;19996;-73
2024/04/13 01:35:12;;;;;;;5.13;3.50;;;;;;;;;;5346714;26;20015;-74
2024/04/13 01:37:38;;;;;;;7.10;3.10;;;;;;;;;;5378029;26;20018;-74
2024/04/13 01:40:09;;;;;;;6.70;3.03;;;;;;;;;;5346913;26;20007;-75
2024/04/13 01:42:37;;;;;;;6.97;3.33;;;;;;;;;;5347094;26;20001;-74
2024/04/13 01:45:03;;;;;;;6.40;3.45;;;;;;;;;;5377590;26;20078;-78
2024/04/13 01:47:30;;;;;;;5.57;3.25;;;;;;;;;;5346893;26;20309;-76
2024/04/13 01:49:56;;;;;;;5.70;3.60;;;;;;;;;;5346809;26;20004;-78
2024/04/13 01:52:22;;;;;;;5.35;3.10;;;;;;;;;;5377547;26;21101;-77
2024/04/13 01:54:48;;;;;;;8.52;3.03;;;;;;;;;;5346975;26;20000;-76
2024/04/13 01:57:14;;;;;;;6.80;3.58;;;;;;;;;;5317450;26;20082;-77
2024/04/13 01:59:43;;;;;;;8.07;3.63;;;;;;;;;;5377381;26;20016;-77
2024/04/13 02:02:12;;;;;;;4.35;3.15;;;;;;;;;;5377086;26;20470;-78
2024/04/13 02:04:38;;;;;;;6.22;3.53;;;;;;;;;;5346156;26;20020;-77
2024/04/13 02:07:07;;;;;;;4.18;3.35;;;;;;;;;;5346075;26;20362;-77
2024/04/13 02:09:33;;;;;;;6.28;4.25;;;;;;;;;;5377051;26;20492;-77
2024/04/13 02:12:00;;;;;;;5.18;3.58;;;;;;;;;;5346095;26;20022;-78
2024/04/13 02:14:27;;;;;;;6.15;3.47;;;;;;;;;;5376558;26;20010;-77
2024/04/13 02:16:54;;;;;;;5.45;3.85;;;;;;;;;;5377217;26;20004;-76
2024/04/13 02:19:19;;;;;;;5.15;4.38;;;;;;;;;;5377849;26;20443;-77
2024/04/13 02:21:45;;;;;;;6.85;3.63;;;;;;;;;;5377682;26;20000;-77
2024/04/13 02:24:13;;;;;;;6.45;3.95;;;;;;;;;;5377480;26;20009;-78
2024/04/13 02:26:38;;;;;;;6.28;3.30;;;;;;;;;;5346420;26;20080;-78
2024/04/13 02:29:04;;;;;;;6.70;3.60;;;;;;;;;;5346664;26;20008;-74
2024/04/13 02:31:30;;;;;;;8.73;3.65;;;;;;;;;;5346457;26;20015;-77
2024/04/13 02:33:55;;;;;;;7.47;3.50;;;;;;;;;;5345863;26;20372;-77
2024/04/13 02:36:21;;;;;;;6.50;3.75;;;;;;;;;;5345640;26;20015;-76
2024/04/13 02:38:46;;;;;;;5.68;4.00;;;;;;;;;;5346038;26;20011;-76
2024/04/13 02:41:13;;;;;;;5.00;3.40;;;;;;;;;;5344699;26;20426;-77
2024/04/13 02:43:38;;;;;;;8.32;4.15;;;;;;;;;;5345510;26;20073;-76
2024/04/13 02:46:11;;;;;;;9.50;3.72;;;;;;;;;;5346022;26;20012;-77
2024/04/13 02:48:42;;;;;;;8.75;4.05;;;;;;;;;;5377441;26;19996;-78
2024/04/13 02:51:13;;;;;;;8.93;4.53;;;;;;;;;;5346183;26;20012;-78
2024/04/13 02:53:39;;;;;;;8.52;5.03;;;;;;;;;;5346639;26;20319;-78
2024/04/13 02:56:06;;;;;;;8.32;4.25;;;;;;;;;;5345879;26;20000;-77
2024/04/13 02:58:32;;;;;;;6.78;4.60;;;;;;;;;;5377154;26;20004;-79
2024/04/13 03:01:02;;;;;;;8.13;5.43;;;;;;;;;;5376864;26;20015;-78
2024/04/13 03:03:27;;;;;;;11.68;5.45;;;;;;;;;;5376609;26;20608;-76
2024/04/13 03:06:14;;;;;;;10.43;4.53;;;;;;;;;;5375970;26;19996;-77
2024/04/13 03:08:40;;;;;;;6.25;4.00;;;;;;;;;;5345273;26;20000;-76
2024/04/13 03:11:09;;;;;;;9.10;4.03;;;;;;;;;;5345180;26;20000;-76
2024/04/13 03:13:37;;;;;;;7.97;4.13;;;;;;;;;;5345508;26;20024;-77
2024/04/13 03:16:08;;;;;;;6.72;4.20;;;;;;;;;;5346591;26;20018;-78
2024/04/13 03:18:34;;;;;;;;;;;;;;;;;;5346929;26;20023;-77
2024/04/13 03:21:00;;;;;;;8.88;4.15;;;;;;;;;;5345700;26;20391;-77
2024/04/13 03:23:28;;;;;;;8.35;4.65;;;;;;;;;;5345568;26;20015;-75
2024/04/13 03:25:54;;;;;;;10.98;4.20;;;;;;;;;;5345981;26;20074;-77
2024/04/13 03:28:21;;;;;;;6.43;4.13;;;;;;;;;;5345908;26;20012;-77
2024/04/13 03:30:47;;;;;;;5.40;3.42;;;;;;;;;;5376526;26;20004;-79
2024/04/13 03:33:13;;;;;;;5.72;3.65;;;;;;;;;;5345100;26;20019;-78
2024/04/13 03:35:39;;;;;;;4.63;3.22;;;;;;;;;;5376609;26;20809;-78
2024/04/13 03:38:06;;;;;;;7.55;3.78;;;;;;;;;;5345700;26;20081;-76
2024/04/13 03:40:34;;;;;;;5.57;3.47;;;;;;;;;;5345546;26;20451;-76
2024/04/13 03:43:00;;;;;;;5.07;3.47;;;;;;;;;;5377058;26;20308;-74
2024/04/13 03:45:26;;;;;;;4.55;3.65;;;;;;;;;;5345213;26;20910;-74
2024/04/13 03:47:51;;;;;;;5.72;3.42;;;;;;;;;;5316333;26;20624;-75
2024/04/13 03:50:17;;;;;;;14.65;4.30;;;;;;;;;;5375763;26;20011;-74
2024/04/13 03:52:45;;;;;;;7.82;4.07;;;;;;;;;;5375482;26;20000;-75
2024/04/13 03:55:10;;;;;;;8.77;4.25;;;;;;;;;;5376361;26;20000;-74
2024/04/13 03:57:36;;;;;;;10.68;4.45;;;;;;;;;;5376734;26;20118;-73
2024/04/13 04:00:02;;;;;;;7.82;3.80;;;;;;;;;;5346514;26;20024;-74
2024/04/13 04:02:28;;;;;;;5.30;3.83;;;;;;;;;;5346207;26;20085;-75
2024/04/13 04:04:54;;;;;;;8.45;3.97;;;;;;;;;;5377676;26;20414;-74
2024/04/13 04:07:19;;;;;;;7.30;4.20;;;;;;;;;;5376964;26;20515;-75
2024/04/13 04:09:45;;;;;;;9.63;4.25;;;;;;;;;;5345890;26;20012;-74
2024/04/13 04:12:10;;;;;;;10.07;4.60;;;;;;;;;;5345699;26;20016;-75
2024/04/13 04:14:36;;;;;;;5.95;4.35;;;;;;;;;;5346177;26;20015;-74
2024/04/13 04:17:02;;;;;;;6.93;4.25;;;;;;;;;;5344851;26;20107;-74
2024/04/13 04:19:28;;;;;;;8.93;4.72;;;;;;;;;;5375131;26;20000;-74
2024/04/13 04:21:54;;;;;;;9.25;4.15;;;;;;;;;;5344431;26;20036;-74
2024/04/13 04:24:22;;;;;;;11.60;4.20;;;;;;;;;;5344401;26;20073;-74
2024/04/13 04:26:48;;;;;;;5.97;3.90;;;;;;;;;;5344815;26;20004;-75
2024/04/13 04:29:15;;;;;;;7.28;4.05;;;;;;;;;;5344726;26;20505;-73
2024/04/13 04:31:41;;;;;;;9.93;4.20;;;;;;;;;;5344358;26;20000;-74
2024/04/13 04:34:08;;;;;;;5.40;4.05;;;;;;;;;;5374616;26;20008;-74
2024/04/13 04:36:34;;;;;;;7.53;4.20;;;;;;;;;;5343626;26;20000;-73
2024/04/13 04:38:59;;;;;;;10.52;4.50;;;;;;;;;;5343998;26;20141;-74
2024/04/13 04:41:26;;;;;;;7.60;4.57;;;;;;;;;;5343200;26;19996;-74
2024/04/13 04:43:53;;;;;;;8.30;4.70;;;;;;;;;;5343552;26;20015;-74
2024/04/13 04:46:20;;;;;;;8.52;4.57;;;;;;;;;;5343302;26;20105;-74
2024/04/13 04:48:51;;;;;;;6.05;3.88;;;;;;;;;;5344347;26;20044;-75
2024/04/13 04:51:18;;;;;;;11.23;4.20;;;;;;;;;;5374942;26;20015;-75
2024/04/13 04:53:43;;;;;;;4.70;3.83;;;;;;;;;;5344490;26;20327;-75
2024/04/13 04:56:09;;;;;;;6.55;4.10;;;;;;;;;;5343945;26;20320;-76
2024/04/13 04:58:36;;;;;;;10.38;4.45;;;;;;;;;;5374987;26;20060;-75
2024/04/13 05:01:02;;;;;;;9.65;4.07;;;;;;;;;;5344413;26;20012;-76
2024/04/13 05:03:28;;;;;;;7.72;4.05;;;;;;;;;;5374866;26;20008;-78
2024/04/13 05:05:54;;;;;;;12.70;4.47;;;;;;;;;;5347108;26;20004;-75
2024/04/13 05:08:20;;;;;;;10.70;4.53;;;;;;;;;;5347263;26;20008;-76
2024/04/13 05:10:47;;;;;;;7.60;3.85;;;;;;;;;;5347280;26;20111;-77
2024/04/13 05:13:16;;;;;;;7.63;4.28;;;;;;;;;;5341463;26;19997;-76
2024/04/13 05:15:42;;;;;;;7.85;4.20;;;;;;;;;;5342099;26;20008;-76
2024/04/13 05:18:09;;;;;;;4.55;3.88;;;;;;;;;;5341990;26;20009;-76
2024/04/13 05:20:36;;;;;;;11.15;4.15;;;;;;;;;;5342811;26;20052;-76
2024/04/13 05:23:05;;;;;;;8.38;4.40;;;;;;;;;;5341412;26;20747;-76
2024/04/13 05:25:31;;;;;;;6.95;4.82;;;;;;;;;;5344270;26;20345;-76
2024/04/13 05:27:57;;;;;;;8.60;4.28;;;;;;;;;;5341945;26;20012;-75
2024/04/13 05:30:22;;;;;;;11.93;4.55;;;;;;;;;;5343637;26;20552;-76
2024/04/13 05:32:48;;;;;;;9.65;4.82;;;;;;;;;;5341174;26;20005;-77
2024/04/13 05:35:16;;;;;;;9.20;4.53;;;;;;;;;;5343037;26;20001;-76
2024/04/13 05:37:42;;;;;;;10.55;4.18;;;;;;;;;;5341152;26;20049;-76
2024/04/13 05:40:09;;;;;;;7.38;3.80;;;;;;;;;;5312716;26;20015;-76
2024/04/13 05:42:36;;;;;;;8.02;4.43;;;;;;;;;;5342909;26;20009;-76
2024/04/13 05:45:03;;;;;;;5.18;3.88;;;;;;;;;;5341310;26;20023;-77
2024/04/13 05:47:29;;;;;;;9.68;4.72;;;;;;;;;;5342571;26;20001;-76
2024/04/13 05:49:55;;;;;;;6.97;4.65;;;;;;;;;;5343017;26;20015;-76
2024/04/13 05:52:20;;;;;;;7.00;4.20;;;;;;;;;;5340967;26;20016;-76
2024/04/13 05:54:46;;;;;;;10.07;4.18;;;;;;;;;;5342510;26;20013;-76
2024/04/13 05:57:12;;;;;;;8.60;4.95;;;;;;;;;;5340948;26;19997;-76
2024/04/13 05:59:40;;;;;;;10.13;4.78;;;;;;;;;;5341966;26;20001;-76
2024/04/13 06:02:05;;;;;;;5.80;4.18;;;;;;;;;;5341174;26;20004;-76
2024/04/13 06:04:31;;;;;;;9.60;4.38;;;;;;;;;;5341494;26;20001;-77
2024/04/13 06:06:58;;;;;;;9.00;4.15;;;;;;;;;;5342236;26;20012;-77
2024/04/13 06:09:23;;;;;;;6.05;3.80;;;;;;;;;;5343289;26;20001;-76
2024/04/13 06:11:49;;;;;;;7.50;4.28;;;;;;;;;;5346166;26;20012;-75
2024/04/13 06:14:16;;;;;;;10.73;3.75;;;;;;;;;;5370754;26;20004;-77
2024/04/13 06:16:41;;;;;;;7.20;4.25;;;;;;;;;;5350994;26;20008;-77
2024/04/13 06:19:07;;;;;;;8.82;3.90;;;;;;;;;;5351001;26;20007;-77
2024/04/13 06:21:32;;;;;;;7.13;4.50;;;;;;;;;;5347473;26;20358;-76
2024/04/13 06:23:58;;;;;;;9.93;4.70;;;;;;;;;;5347493;26;20000;-76
2024/04/13 06:26:25;;;;;;;9.18;4.32;;;;;;;;;;5347661;26;20012;-77
2024/04/13 06:28:53;;;;;;;6.97;4.03;;;;;;;;;;5378755;26;20000;-78
2024/04/13 06:31:19;;;;;;;7.60;3.90;;;;;;;;;;5347583;26;20012;-78
2024/04/13 06:33:45;;;;;;;7.30;4.03;;;;;;;;;;5347082;26;20432;-78
2024/04/13 06:36:11;;;;;;;5.03;3.45;;;;;;;;;;5347269;26;20004;-78
2024/04/13 06:38:38;;;;;;;8.38;4.35;;;;;;;;;;5346885;26;20007;-77
2024/04/13 06:41:04;;;;;;;10.30;3.95;;;;;;;;;;5318610;26;20131;-79
2024/04/13 06:43:30;;;;;;;4.05;3.38;;;;;;;;;;5346767;26;20000;-77
2024/04/13 06:45:56;;;;;;;8.30;4.15;;;;;;;;;;5318226;26;20452;-77
2024/04/13 06:48:22;;;;;;;8.98;4.15;;;;;;;;;;5377602;26;20525;-79
2024/04/13 06:50:47;;;;;;;11.32;4.95;;;;;;;;;;5346414;26;20015;-76
2024/04/13 06:53:13;;;;;;;5.32;3.88;;;;;;;;;;5346034;26;20012;-78
2024/04/13 06:55:38;;;;;;;8.23;4.10;;;;;;;;;;5345738;26;20008;-78
2024/04/13 06:58:04;;;;;;;7.13;3.63;;;;;;;;;;5345957;26;20011;-77
2024/04/13 07:00:30;;;;;;;6.25;3.85;;;;;;;;;;5375214;26;19996;-79
2024/04/13 07:02:55;;;;;;;6.65;3.80;;;;;;;;;;5376450;26;19997;-76
2024/04/13 07:05:21;;;;;;;4.63;3.72;;;;;;;;;;5345166;26;20012;-78
2024/04/13 07:07:46;;;;;;;5.80;3.33;;;;;;;;;;5376349;26;19996;-77
2024/04/13 07:10:12;;;;;;;9.02;3.47;;;;;;;;;;5376711;26;20008;-76
2024/04/13 07:12:39;;;;;;;7.93;3.67;;;;;;;;;;5376406;26;20000;-76
2024/04/13 07:15:05;;;;;;;6.88;3.17;;;;;;;;;;5376406;26;19997;-78
2024/04/13 07:17:30;;;;;;;12.52;3.67;;;;;;;;;;5377117;26;20011;-77
2024/04/13 07:19:56;;;;;;;10.93;3.78;;;;;;;;;;5376489;26;20094;-77
2024/04/13 07:22:21;;;;;;;3.95;3.10;;;;;;;;;;5345126;26;20069;-76
2024/04/13 07:24:47;;;;;;;12.73;3.00;;;;;;;;;;5376499;26;20865;-79
2024/04/13 07:27:13;;;;;;;3.53;2.97;;;;;;;;;;5344673;26;20352;-77
2024/04/13 07:29:39;;;;;;;7.38;3.25;;;;;;;;;;5373643;26;19996;-77
2024/04/13 07:32:04;;;;;;;7.45;3.42;;;;;;;;;;5376331;26;20039;-78
2024/04/13 07:34:30;;;;;;;7.55;2.80;;;;;;;;;;5343839;26;19997;-77
2024/04/13 07:36:55;;;;;;;8.38;3.25;;;;;;;;;;5345110;26;20010;-76
2024/04/13 07:39:21;;;;;;;6.75;3.20;;;;;;;;;;5375153;26;20300;-74
2024/04/13 07:41:47;;;;;;;10.95;2.83;;;;;;;;;;5345012;26;20487;-78
2024/04/13 07:44:13;;;;;;;12.48;3.28;;;;;;;;;;5376311;26;20008;-79
2024/04/13 07:46:39;;;;;;;6.63;3.28;;;;;;;;;;5344884;26;20411;-80
2024/04/13 07:49:05;;;;;;;4.15;2.63;;;;;;;;;;5344415;26;20015;-77
2024/04/13 07:51:30;;;;;;;5.78;2.95;;;;;;;;;;5344885;26;20044;-77
2024/04/13 07:53:56;;;;;;;9.15;3.38;;;;;;;;;;5374552;26;20008;-77
2024/04/13 07:56:22;;;;;;;8.27;3.22;;;;;;;;;;5345142;26;20004;-74
2024/04/13 07:58:49;;;;;;;8.00;2.85;;;;;;;;;;5344808;26;20002;-77
2024/04/13 08:01:15;;;;;;;7.40;3.45;;;;;;;;;;5344844;26;20103;-77
2024/04/13 08:03:40;;;;;;;7.57;3.42;;;;;;;;;;5344570;26;20062;-78
2024/04/13 08:06:07;;;;;;;6.10;2.58;;;;;;;;;;5344920;26;20077;-77
2024/04/13 08:08:32;;;;;;;10.05;4.18;;;;;;;;;;5375710;26;20006;-78
2024/04/13 08:10:59;;;;;;;14.30;6.20;;;;;;;;;;5344627;26;19996;-78
2024/04/13 08:13:25;;;;;;;10.77;3.95;;;;;;;;;;5343792;26;20008;-77
2024/04/13 08:15:52;;;;;;;7.68;3.38;;;;;;;;;;5344367;26;20070;-77
2024/04/13 08:18:17;;;;;;;12.68;6.32;;;;;;;;;;5316059;26;20001;-79
2024/04/13 08:20:46;;;;;;;3.80;3.25;;;;;;;;;;5385512;26;20447;-77
2024/04/13 08:23:14;;;;;;;4.15;2.90;;;;;;;;;;5379616;26;20492;-77
2024/04/13 08:25:40;;;;;;;3.90;2.80;;;;;;;;;;5410927;26;20031;-80
2024/04/13 08:28:08;;;;;;;4.88;3.10;;;;;;;;;;5381032;26;20084;-77
2024/04/13 08:30:36;;;;;;;6.50;2.85;;;;;;;;;;5379453;26;20077;-76
2024/04/13 08:33:02;;;;;;;5.50;2.97;;;;;;;;;;5379274;26;20363;-78
2024/04/13 08:35:29;;;;;;;8.77;3.88;;;;;;;;;;5378427;26;20011;-78
2024/04/13 08:37:54;;;;;;;6.78;3.33;;;;;;;;;;5378886;26;20003;-76
2024/04/13 08:40:20;;;;;;;4.82;2.70;;;;;;;;;;5412335;26;20010;-77
2024/04/13 08:42:52;;;;;;;9.57;3.67;;;;;;;;;;5382266;26;20327;-77
2024/04/13 08:45:18;;;;;;;7.03;3.55;;;;;;;;;;5384568;26;20003;-77
2024/04/13 08:47:45;;;;;;;5.45;3.20;;;;;;;;;;5413961;26;20015;-77
2024/04/13 08:50:11;;;;;;;8.57;3.22;;;;;;;;;;5353595;26;20470;-77
2024/04/13 08:52:37;;;;;;;6.93;3.10;;;;;;;;;;5383906;26;20015;-79
2024/04/13 08:55:05;;;;;;;4.72;2.85;;;;;;;;;;5383861;26;20010;-77
2024/04/13 08:57:33;;;;;;;4.03;3.63;;;;;;;;;;5414401;26;20037;-77
2024/04/13 09:00:03;;;;;;;4.30;2.60;;;;;;;;;;5383007;26;20000;-77
2024/04/13 09:02:35;;;;;;;5.03;3.75;;;;;;;;;;5413789;26;19999;-80
2024/04/13 09:05:04;;;;;;;9.05;5.07;;;;;;;;;;5382605;26;20006;-78
2024/04/13 09:07:35;;;;;;;9.30;4.63;;;;;;;;;;5413669;26;19995;-77
2024/04/13 09:10:04;;;;;;;9.75;4.75;;;;;;;;;;5382785;26;20156;-78
2024/04/13 09:12:30;;;;;;;7.75;5.57;;;;;;;;;;5382229;26;20072;-77
2024/04/13 09:15:00;;;;;;;8.13;5.18;;;;;;;;;;5382578;26;20019;-77
2024/04/13 09:17:26;;;;;;;6.05;5.18;;;;;;;;;;5382691;26;20076;-79
2024/04/13 09:19:51;;;;;;;11.15;7.10;;;;;;;;;;5382178;26;20162;-74
2024/04/13 09:22:19;;;;;;;7.93;5.97;;;;;;;;;;5349513;26;20004;-75
2024/04/13 09:24:45;;;;;;;10.55;5.60;;;;;;;;;;5318078;26;20739;-74
2024/04/13 09:27:18;;;;;;;11.10;5.28;;;;;;;;;;5347320;26;20014;-74
2024/04/13 09:29:44;;;;;;;11.52;7.00;;;;;;;;;;5377089;26;20000;-76
2024/04/13 09:32:23;;;;;;;11.25;5.18;;;;;;;;;;5346925;26;20000;-73
2024/04/13 09:34:50;;;;;;;8.85;6.38;;;;;;;;;;5346600;26;20336;-73
2024/04/13 09:37:16;;;;;;;11.73;6.25;;;;;;;;;;5378085;26;20004;-73
2024/04/13 09:39:43;;;;;;;15.27;4.97;;;;;;;;;;5377944;26;20015;-73
2024/04/13 09:42:10;;;;;;;16.45;5.35;;;;;;;;;;5347020;26;20840;-74
2024/04/13 09:44:35;;;;;;;17.77;6.22;;;;;;;;;;5377270;26;20451;-73
2024/04/13 09:47:01;;;;;;;13.68;4.65;;;;;;;;;;5346914;26;20015;-74
2024/04/13 09:49:27;;;;;;;8.73;4.47;;;;;;;;;;5377708;26;20761;-73
2024/04/13 09:51:52;;;;;;;6.70;3.97;;;;;;;;;;5377547;26;20011;-74
2024/04/13 09:54:19;;;;;;;9.40;5.00;;;;;;;;;;5347111;26;20015;-73
2024/04/13 09:56:46;;;;;;;6.63;4.30;;;;;;;;;;5346834;26;20888;-74
2024/04/13 09:59:21;;;;;;;5.95;4.50;;;;;;;;;;5346611;26;20016;-73
2024/04/13 10:01:47;;;;;;;8.98;5.18;;;;;;;;;;5377658;26;20008;-73
2024/04/13 10:04:13;;;;;;;10.52;4.88;;;;;;;;;;5346976;26;20011;-74
2024/04/13 10:06:40;;;;;;;7.25;4.72;;;;;;;;;;5378938;26;19996;-75
2024/04/13 10:09:11;;;;;;;10.40;4.50;;;;;;;;;;5379087;26;20646;-72
2024/04/13 10:11:43;;;;;;;;;;;;;;;;;;5378476;26;20014;-73
2024/04/13 10:14:15;;;;;;;9.90;4.35;;;;;;;;;;5376929;26;19990;-73
2024/04/13 10:16:42;;;;;;;11.00;6.60;;;;;;;;;;5346162;26;20015;-75
2024/04/13 10:19:14;;;;;;;9.27;4.68;;;;;;;;;;5376360;26;19999;-75
2024/04/13 10:21:39;;;;;;;9.52;3.90;;;;;;;;;;5345838;26;20452;-74
2024/04/13 10:24:14;;;;;;;5.25;3.15;;;;;;;;;;5346570;26;20015;-75
2024/04/13 10:26:39;;;;;;;6.93;3.83;;;;;;;;;;5346277;26;20424;-73
2024/04/13 10:29:04;;;;;;;8.00;3.70;;;;;;;;;;5346563;26;20051;-74
2024/04/13 10:31:33;;;;;;;6.38;3.88;;;;;;;;;;5346325;26;20005;-76
2024/04/13 10:33:59;;;;;;;6.85;4.05;;;;;;;;;;5345960;26;20000;-73
2024/04/13 10:36:33;;;;;;;9.43;3.83;;;;;;;;;;5347470;26;20015;-74
2024/04/13 10:39:01;;;;;;;6.95;3.40;;;;;;;;;;5347841;26;20509;-72
2024/04/13 10:41:32;;;;;;;4.50;3.38;;;;;;;;;;5377927;26;20018;-72
2024/04/13 10:43:59;;;;;;;7.88;4.53;;;;;;;;;;5346708;26;20000;-74
2024/04/13 10:46:25;;;;;;;6.50;3.80;;;;;;;;;;5345928;26;20007;-73
2024/04/13 10:48:52;;;;;;;7.65;3.42;;;;;;;;;;5376471;26;20020;-71
2024/04/13 10:51:21;;;;;;;4.68;3.13;;;;;;;;;;5376571;26;20077;-73
2024/04/13 10:53:47;;;;;;;9.50;3.60;;;;;;;;;;5345078;26;20461;-73
2024/04/13 10:56:13;;;;;;;5.18;3.25;;;;;;;;;;5345358;26;20050;-72
2024/04/13 10:58:39;;;;;;;5.18;2.40;;;;;;;;;;5345806;26;20129;-73
2024/04/13 11:01:05;;;;;;;74.93;22.23;;;;;;;;;;5376533;26;20011;-73
2024/04/13 11:03:31;;;;;;;7.40;3.85;;;;;;;;;;5345443;26;20015;-73
2024/04/13 11:05:57;;;;;;;7.18;3.65;;;;;;;;;;5345666;26;19996;-75
2024/04/13 11:08:24;;;;;;;6.88;2.75;;;;;;;;;;5346088;26;20001;-73
2024/04/13 11:10:56;;;;;;;9.52;4.00;;;;;;;;;;5345332;26;20000;-72
2024/04/13 11:13:23;;;;;;;3.70;2.40;;;;;;;;;;5345189;26;20004;-73
2024/04/13 11:15:49;;;;;;;4.22;2.40;;;;;;;;;;5375014;26;20075;-72
2024/04/13 11:18:15;;;;;;;7.47;3.25;;;;;;;;;;5376494;26;20003;-73
2024/04/13 11:20:42;;;;;;;8.68;2.85;;;;;;;;;;5345135;26;20028;-73
2024/04/13 11:23:09;;;;;;;5.15;3.05;;;;;;;;;;5345470;26;19992;-72
2024/04/13 11:25:35;;;;;;;4.65;2.00;;;;;;;;;;5375840;26;20000;-73
2024/04/13 11:28:03;;;;;;;4.15;2.50;;;;;;;;;;5345731;26;20328;-75
2024/04/13 11:30:30;;;;;;;4.00;2.85;;;;;;;;;;5345050;26;20070;-73
2024/04/13 11:32:56;;;;;;;6.93;2.40;;;;;;;;;;5376013;26;20076;-73
2024/04/13 11:35:22;;;;;;;10.20;4.80;;;;;;;;;;5344582;26;20000;-73
2024/04/13 11:38:15;;;;;;;28.17;8.23;;;;;;;;;;5345544;26;19996;-72
2024/04/13 11:40:40;;;;;;;6.05;2.63;;;;;;;;;;5340321;26;20011;-73
2024/04/13 11:43:06;;;;;;;4.03;2.72;;;;;;;;;;5347028;26;20048;-75
2024/04/13 11:45:32;;;;;;;7.35;3.50;;;;;;;;;;5347412;26;20000;-74
2024/04/13 11:47:58;;;;;;;4.18;2.88;;;;;;;;;;5346206;26;20482;-74
2024/04/13 11:50:24;;;;;;;4.40;2.30;;;;;;;;;;5345875;26;19996;-75
2024/04/13 11:52:50;;;;;;;2.97;1.85;;;;;;;;;;5345611;26;20000;-72
2024/04/13 11:55:23;;;;;;;2.13;1.85;;;;;;;;;;5345318;26;20003;-73
2024/04/13 11:57:49;;;;;;;4.53;2.13;;;;;;;;;;5344850;26;20000;-75
2024/04/13 12:00:15;;;;;;;5.40;1.80;;;;;;;;;;5376324;26;20004;-73
2024/04/13 12:02:43;;;;;;;5.53;1.85;;;;;;;;;;5376170;26;20015;-74
2024/04/13 12:05:09;;;;;;;7.10;3.35;;;;;;;;;;5345331;26;20750;-73
2024/04/13 12:07:35;;;;;;;3.78;2.20;;;;;;;;;;5345097;26;20051;-73
2024/04/13 12:10:00;;;;;;;5.55;2.17;;;;;;;;;;5375635;26;20004;-73
2024/04/13 12:12:26;;;;;;;5.80;2.58;;;;;;;;;;5345187;26;20026;-73
2024/04/13 12:14:52;;;;;;;4.03;2.30;;;;;;;;;;5374247;26;20036;-72
2024/04/13 12:17:18;;;;;;;6.60;2.20;;;;;;;;;;5344449;26;20069;-72
2024/04/13 12:19:44;;;;;;;2.53;2.03;;;;;;;;;;5375648;26;20012;-72
2024/04/13 12:22:10;;;;;;;3.45;1.90;;;;;;;;;;5344304;26;20039;-73
2024/04/13 12:24:35;;;;;;;2.63;1.80;;;;;;;;;;5344187;26;20000;-72
2024/04/13 12:27:03;;;;;;;2.95;1.80;;;;;;;;;;5344168;26;20484;-73
2024/04/13 12:29:31;;;;;;;5.60;1.92;;;;;;;;;;5344408;26;20004;-73
2024/04/13 12:31:57;;;;;;;2.47;1.73;;;;;;;;;;5343767;26;20104;-73
2024/04/13 12:34:22;;;;;;;3.33;1.77;;;;;;;;;;5374559;26;20367;-73
2024/04/13 12:36:48;;;;;;;1.95;1.70;;;;;;;;;;5374800;26;20014;-72
2024/04/13 12:39:16;;;;;;;2.10;1.65;;;;;;;;;;5375068;26;20004;-74
2024/04/13 12:41:42;;;;;;;2.35;1.83;;;;;;;;;;5343982;26;20444;-72
2024/04/13 12:44:08;;;;;;;3.45;2.20;;;;;;;;;;5344176;26;20008;-73
2024/04/13 12:46:35;;;;;;;4.88;2.17;;;;;;;;;;5374775;26;20000;-73
2024/04/13 12:49:01;;;;;;;3.85;2.08;;;;;;;;;;5344127;26;20004;-73
2024/04/13 12:51:26;;;;;;;4.25;2.47;;;;;;;;;;5344184;26;20487;-72
2024/04/13 12:53:52;;;;;;;5.53;2.72;;;;;;;;;;5343452;26;20010;-72
2024/04/13 12:56:18;;;;;;;3.70;2.28;;;;;;;;;;5376209;26;20456;-73
2024/04/13 12:58:45;;;;;;;2.75;1.75;;;;;;;;;;5375138;26;20019;-74
2024/04/13 13:01:13;;;;;;;6.28;2.03;;;;;;;;;;5343894;26;20081;-73
2024/04/13 13:03:39;;;;;;;3.17;1.80;;;;;;;;;;5343684;26;20016;-75
2024/04/13 13:06:06;;;;;;;7.03;3.28;;;;;;;;;;5375774;26;20323;-74
2024/04/13 13:08:31;;;;;;;2.20;2.00;;;;;;;;;;5375582;26;20004;-72
2024/04/13 13:10:59;;;;;;;4.82;2.00;;;;;;;;;;5344256;26;20015;-73
2024/04/13 13:13:24;;;;;;;4.80;1.85;;;;;;;;;;5374508;26;20012;-73
2024/04/13 13:15:52;;;;;;;5.22;2.08;;;;;;;;;;5343702;26;20020;-74
2024/04/13 13:18:18;;;;;;;4.90;2.45;;;;;;;;;;5373884;26;20074;-71
2024/04/13 13:20:44;;;;;;;5.88;2.45;;;;;;;;;;5344265;26;19996;-74
2024/04/13 13:23:10;;;;;;;5.15;2.60;;;;;;;;;;5344714;26;20024;-73
2024/04/13 13:25:38;;;;;;;4.90;3.28;;;;;;;;;;5344774;26;20006;-72
2024/04/13 13:28:04;;;;;;;3.42;1.80;;;;;;;;;;5347823;26;20019;-74
2024/04/13 13:30:41;;;;;;;3.10;2.35;;;;;;;;;;5378937;26;20090;-73
2024/04/13 13:33:07;;;;;;;6.68;2.25;;;;;;;;;;5319854;26;20015;-72
2024/04/13 13:35:35;;;;;;;3.35;1.80;;;;;;;;;;5348001;26;20463;-73
2024/04/13 13:38:02;;;;;;;5.00;2.40;;;;;;;;;;5378705;26;20015;-72
2024/04/13 13:40:27;;;;;;;3.22;2.25;;;;;;;;;;5378810;26;20412;-72
2024/04/13 13:42:53;;;;;;;5.43;2.58;;;;;;;;;;5377948;26;20018;-73
2024/04/13 13:45:18;;;;;;;4.32;2.55;;;;;;;;;;5347123;26;20000;-71
2024/04/13 13:47:44;;;;;;;3.05;2.28;;;;;;;;;;5346518;26;20081;-73
2024/04/13 13:50:09;;;;;;;3.25;2.28;;;;;;;;;;5347570;26;20075;-72
2024/04/13 13:52:35;;;;;;;2.28;2.00;;;;;;;;;;5346823;26;20011;-72
2024/04/13 13:55:01;;;;;;;3.33;2.05;;;;;;;;;;5377400;26;20503;-71
2024/04/13 13:57:28;;;;;;;4.03;2.17;;;;;;;;;;5347385;26;20000;-72
2024/04/13 13:59:53;;;;;;;4.20;2.80;;;;;;;;;;5346913;26;20000;-73
2024/04/13 14:02:21;;;;;;;4.97;2.30;;;;;;;;;;5347202;26;20015;-73
2024/04/13 14:04:47;;;;;;;4.00;2.20;;;;;;;;;;5345963;26;20077;-73
2024/04/13 14:07:12;;;;;;;2.92;2.00;;;;;;;;;;5346325;26;20012;-72
2024/04/13 14:09:39;;;;;;;6.65;2.20;;;;;;;;;;5346417;26;20028;-72
2024/04/13 14:12:06;;;;;;;4.43;2.15;;;;;;;;;;5346052;26;20023;-72
2024/04/13 14:14:31;;;;;;;3.53;2.03;;;;;;;;;;5377500;26;20004;-73
2024/04/13 14:16:59;;;;;;;2.25;1.73;;;;;;;;;;5346159;26;20036;-72
2024/04/13 14:19:25;;;;;;;2.80;1.75;;;;;;;;;;5346862;26;20005;-73
2024/04/13 14:21:51;;;;;;;3.33;1.98;;;;;;;;;;5377073;26;20089;-72
2024/04/13 14:24:16;;;;;;;3.45;1.77;;;;;;;;;;5345823;26;20008;-72
2024/04/13 14:26:42;;;;;;;1.90;1.40;;;;;;;;;;5345761;26;20025;-73
2024/04/13 14:29:07;;;;;;;2.58;1.80;;;;;;;;;;5345295;26;20555;-74
2024/04/13 14:31:33;;;;;;;5.22;2.20;;;;;;;;;;5376684;26;20660;-73
2024/04/13 14:33:59;;;;;;;1.50;1.40;;;;;;;;;;5345084;26;20551;-74
2024/04/13 14:36:24;;;;;;;2.30;1.40;;;;;;;;;;5376356;26;20451;-74
2024/04/13 14:38:50;;;;;;;2.17;1.50;;;;;;;;;;5344489;26;20000;-74